createdAt,value
2018-11-29T00:00:49.713Z,101262.60
2018-11-29T00:03:18.515Z,101263.70
2018-11-29T00:05:46.578Z,101258.81
2018-11-29T00:08:14.658Z,101256.67
2018-11-29T00:10:42.911Z,101261.91
2018-11-29T00:13:10.945Z,101259.38
2018-11-29T00:15:39.024Z,101253.95
2018-11-29T00:18:07.110Z,101254.63
2018-11-29T00:20:35.233Z,101258.81
2018-11-29T00:23:03.394Z,101256.17
2018-11-29T00:25:31.543Z,101256.45
2018-11-29T00:27:59.634Z,101255.20
2018-11-29T00:30:27.775Z,101257.56
2018-11-29T00:32:56.087Z,101258.30
2018-11-29T00:35:24.174Z,101250.80
2018-11-29T00:37:53.189Z,101258.96
2018-11-29T00:40:22.833Z,101257.78
2018-11-29T00:42:50.999Z,101248.58
2018-11-29T00:45:19.957Z,101245.56
2018-11-29T00:47:48.483Z,101241.95
2018-11-29T00:50:17.250Z,101239.85
2018-11-29T00:52:46.280Z,101241.73
2018-11-29T00:55:18.290Z,101240.01
2018-11-29T00:57:46.427Z,101242.17
2018-11-29T01:00:18.495Z,101245.23
2018-11-29T01:02:46.635Z,101246.75
2018-11-29T01:05:14.785Z,101255.20
2018-11-29T01:07:42.875Z,101251.93
2018-11-29T01:10:12.004Z,101245.23
2018-11-29T01:12:40.219Z,101247.73
2018-11-29T01:15:09.790Z,101253.00
2018-11-29T01:17:37.870Z,101247.30
2018-11-29T01:20:07.882Z,101235.80
2018-11-29T01:22:36.047Z,101234.00
2018-11-29T01:25:04.198Z,101226.81
2018-11-29T01:27:32.292Z,101224.91
2018-11-29T01:30:00.510Z,101213.84
2018-11-29T01:32:28.586Z,101202.20
2018-11-29T01:34:56.665Z,101199.19
2018-11-29T01:37:24.722Z,101204.53
2018-11-29T01:39:52.812Z,101214.66
2018-11-29T01:42:20.862Z,101220.84
2018-11-29T01:44:48.927Z,101214.98
2018-11-29T01:47:16.994Z,101225.36
2018-11-29T01:49:45.169Z,101229.92
2018-11-29T01:52:13.266Z,101238.13
2018-11-29T01:54:41.361Z,101240.67
2018-11-29T01:57:09.459Z,101250.66
2018-11-29T01:59:37.557Z,101244.89
2018-11-29T02:02:05.916Z,101243.66
2018-11-29T02:04:33.991Z,101239.30
2018-11-29T02:07:02.801Z,101233.49
2018-11-29T02:09:30.882Z,101234.41
2018-11-29T02:11:58.947Z,101224.24
2018-11-29T02:14:27.016Z,101220.88
2018-11-29T02:16:55.110Z,101219.89
2018-11-29T02:19:23.172Z,101217.45
2018-11-29T02:21:51.267Z,101217.02
2018-11-29T02:24:19.361Z,101217.41
2018-11-29T02:26:47.437Z,101220.06
2018-11-29T02:29:15.526Z,101209.56
2018-11-29T02:31:43.606Z,101210.21
2018-11-29T02:34:11.683Z,101212.85
2018-11-29T02:36:39.867Z,101212.38
2018-11-29T02:39:08.594Z,101210.21
2018-11-29T02:41:36.698Z,101214.13
2018-11-29T02:44:04.897Z,101210.21
2018-11-29T02:46:33.013Z,101207.83
2018-11-29T02:49:01.094Z,101198.06
2018-11-29T02:51:29.201Z,101192.55
2018-11-29T02:53:57.285Z,101191.03
2018-11-29T02:56:25.365Z,101200.52
2018-11-29T02:58:53.445Z,101194.50
2018-11-29T03:01:21.509Z,101192.44
2018-11-29T03:03:49.638Z,101196.34
2018-11-29T03:06:17.778Z,101196.41
2018-11-29T03:08:45.850Z,101189.06
2018-11-29T03:11:13.918Z,101181.96
2018-11-29T03:13:41.999Z,101176.11
2018-11-29T03:16:10.067Z,101159.84
2018-11-29T03:18:38.183Z,101149.31
2018-11-29T03:21:06.454Z,101147.59
2018-11-29T03:23:34.562Z,101151.81
2018-11-29T03:26:02.653Z,101146.67
2018-11-29T03:28:30.741Z,101145.48
2018-11-29T03:30:59.411Z,101139.37
2018-11-29T03:33:27.498Z,101138.05
2018-11-29T03:35:55.582Z,101136.27
2018-11-29T03:38:23.654Z,101122.83
2018-11-29T03:40:51.777Z,101126.73
2018-11-29T03:43:19.850Z,101129.53
2018-11-29T03:45:47.893Z,101125.55
2018-11-29T03:48:15.954Z,101122.98
2018-11-29T03:50:44.058Z,101111.27
2018-11-29T03:53:12.209Z,101109.84
2018-11-29T03:55:40.361Z,101119.83
2018-11-29T03:58:08.470Z,101128.56
2018-11-29T04:00:36.560Z,101136.95
2018-11-29T04:03:04.820Z,101130.39
2018-11-29T04:05:32.885Z,101136.88
2018-11-29T04:08:00.971Z,101145.28
2018-11-29T04:10:29.045Z,101141.55
2018-11-29T04:12:57.113Z,101132.58
2018-11-29T04:15:25.217Z,101127.48
2018-11-29T04:17:53.308Z,101126.02
2018-11-29T04:20:21.412Z,101132.45
2018-11-29T04:22:49.552Z,101137.88
2018-11-29T04:25:17.657Z,101134.52
2018-11-29T04:27:45.736Z,101139.60
2018-11-29T04:30:15.632Z,101143.64
2018-11-29T04:32:43.861Z,101140.72
2018-11-29T04:35:12.516Z,101137.86
2018-11-29T04:37:40.585Z,101144.03
2018-11-29T04:40:15.406Z,101152.92
2018-11-29T04:42:43.670Z,101145.09
2018-11-29T04:45:16.779Z,101135.27
2018-11-29T04:47:44.942Z,101132.73
2018-11-29T04:50:13.092Z,101126.77
2018-11-29T04:52:41.161Z,101123.94
2018-11-29T04:55:09.860Z,101118.52
2018-11-29T04:57:38.082Z,101115.92
2018-11-29T05:00:12.350Z,101119.75
2018-11-29T05:02:40.577Z,101116.41
2018-11-29T05:05:08.905Z,101105.43
2018-11-29T05:07:37.274Z,101105.86
2018-11-29T05:10:06.598Z,101110.38
2018-11-29T05:12:34.690Z,101115.17
2018-11-29T05:15:02.757Z,101110.83
2018-11-29T05:17:30.862Z,101103.45
2018-11-29T05:19:58.980Z,101100.05
2018-11-29T05:22:27.068Z,101096.91
2018-11-29T05:24:55.154Z,101101.61
2018-11-29T05:27:23.254Z,101089.90
2018-11-29T05:29:51.376Z,101081.16
2018-11-29T05:32:19.473Z,101066.55
2018-11-29T05:34:47.572Z,101071.75
2018-11-29T05:37:15.750Z,101075.73
2018-11-29T05:39:43.858Z,101073.81
2018-11-29T05:42:11.965Z,101067.34
2018-11-29T05:44:40.058Z,101065.11
2018-11-29T05:47:08.157Z,101065.47
2018-11-29T05:49:36.278Z,101067.09
2018-11-29T05:52:04.385Z,101065.66
2018-11-29T05:54:32.467Z,101064.66
2018-11-29T05:57:00.549Z,101075.89
2018-11-29T05:59:28.640Z,101074.92
2018-11-29T06:01:56.715Z,101069.39
2018-11-29T06:04:24.811Z,101062.48
2018-11-29T06:06:52.906Z,101062.70
2018-11-29T06:09:21.581Z,101065.50
2018-11-29T06:11:49.695Z,101069.28
2018-11-29T06:14:17.789Z,101065.88
2018-11-29T06:16:45.865Z,101077.16
2018-11-29T06:19:13.949Z,101077.80
2018-11-29T06:21:42.026Z,101066.28
2018-11-29T06:24:13.592Z,101058.17
2018-11-29T06:26:38.214Z,101058.56
2018-11-29T06:29:06.416Z,101052.64
2018-11-29T06:31:34.726Z,101051.25
2018-11-29T06:34:02.836Z,101064.61
2018-11-29T06:36:31.200Z,101061.39
2018-11-29T06:38:59.884Z,101064.47
2018-11-29T06:41:27.978Z,101070.86
2018-11-29T06:43:56.063Z,101066.06
2018-11-29T06:46:24.124Z,101068.66
2018-11-29T06:48:52.210Z,101055.70
2018-11-29T06:51:20.315Z,101058.56
2018-11-29T06:53:53.983Z,101060.56
2018-11-29T06:56:22.569Z,101053.30
2018-11-29T06:58:50.643Z,101047.39
2018-11-29T07:01:18.719Z,101049.84
2018-11-29T07:03:46.788Z,101046.68
2018-11-29T07:06:14.883Z,101040.80
2018-11-29T07:08:42.994Z,101044.80
2018-11-29T07:11:11.091Z,101035.69
2018-11-29T07:13:39.183Z,101033.40
2018-11-29T07:16:07.329Z,101036.66
2018-11-29T07:18:35.432Z,101035.75
2018-11-29T07:21:14.849Z,101046.47
2018-11-29T07:23:42.913Z,101045.95
2018-11-29T07:26:11.020Z,101045.78
2018-11-29T07:28:39.106Z,101034.97
2018-11-29T07:31:07.244Z,101034.18
2018-11-29T07:33:35.312Z,101029.52
2018-11-29T07:36:03.409Z,101033.66
2018-11-29T07:38:31.506Z,101040.00
2018-11-29T07:40:59.597Z,101033.09
2018-11-29T07:43:27.675Z,101032.55
2018-11-29T07:45:55.774Z,101031.62
2018-11-29T07:48:24.556Z,101031.95
2018-11-29T07:50:52.753Z,101035.05
2018-11-29T07:53:20.866Z,101032.70
2018-11-29T07:55:48.935Z,101036.63
2018-11-29T07:58:17.023Z,101047.01
2018-11-29T08:00:45.077Z,101044.42
2018-11-29T08:03:13.295Z,101042.84
2018-11-29T08:05:41.379Z,101039.14
2018-11-29T08:08:09.478Z,101039.67
2018-11-29T08:10:37.533Z,101042.05
2018-11-29T08:13:07.111Z,101041.58
2018-11-29T08:15:35.187Z,101049.16
2018-11-29T08:18:03.397Z,101048.83
2018-11-29T08:20:31.473Z,101041.36
2018-11-29T08:22:59.575Z,101038.86
2018-11-29T08:25:27.665Z,101036.05
2018-11-29T08:27:56.187Z,101031.92
2018-11-29T08:30:24.289Z,101037.97
2018-11-29T08:32:52.342Z,101022.44
2018-11-29T08:35:20.417Z,101021.73
2018-11-29T08:37:48.710Z,101019.61
2018-11-29T08:40:20.082Z,101017.50
2018-11-29T08:42:48.138Z,101020.99
2018-11-29T08:45:16.329Z,101013.80
2018-11-29T08:47:44.438Z,101019.05
2018-11-29T08:50:13.320Z,101017.55
2018-11-29T08:52:42.256Z,101014.16
2018-11-29T08:55:11.635Z,101020.27
2018-11-29T08:57:39.787Z,101020.27
2018-11-29T09:00:10.406Z,101025.59
2018-11-29T09:02:38.514Z,101019.19
2018-11-29T09:05:07.433Z,101024.18
2018-11-29T09:07:35.615Z,101031.02
2018-11-29T09:10:04.803Z,101027.19
2018-11-29T09:12:33.398Z,101024.48
2018-11-29T09:15:01.630Z,101023.61
2018-11-29T09:17:30.109Z,101032.86
2018-11-29T09:19:58.254Z,101026.63
2018-11-29T09:22:26.402Z,101020.63
2018-11-29T09:24:54.573Z,101019.83
2018-11-29T09:27:22.707Z,101009.59
2018-11-29T09:29:50.910Z,101016.23
2018-11-29T09:32:19.069Z,101009.31
2018-11-29T09:34:47.174Z,101006.67
2018-11-29T09:37:15.322Z,101002.92
2018-11-29T09:39:43.382Z,101006.03
2018-11-29T09:42:11.478Z,101010.54
2018-11-29T09:44:39.540Z,101013.65
2018-11-29T09:47:07.697Z,101006.94
2018-11-29T09:49:35.974Z,101011.13
2018-11-29T09:52:04.097Z,101010.13
2018-11-29T09:54:32.181Z,101005.99
2018-11-29T09:57:00.288Z,101003.98
2018-11-29T09:59:28.449Z,101001.85
2018-11-29T10:01:56.557Z,100997.83
2018-11-29T10:04:24.646Z,100989.00
2018-11-29T10:06:52.727Z,100992.44
2018-11-29T10:09:20.799Z,100990.88
2018-11-29T10:11:48.908Z,100983.59
2018-11-29T10:14:16.987Z,100984.08
2018-11-29T10:16:45.089Z,100976.02
2018-11-29T10:19:13.189Z,100973.48
2018-11-29T10:21:41.286Z,100973.80
2018-11-29T10:24:09.388Z,100963.45
2018-11-29T10:26:37.453Z,100968.03
2018-11-29T10:29:05.879Z,100964.42
2018-11-29T10:31:33.963Z,100969.44
2018-11-29T10:34:02.049Z,100964.36
2018-11-29T10:36:30.169Z,100951.68
2018-11-29T10:38:58.253Z,100950.41
2018-11-29T10:41:26.342Z,100942.05
2018-11-29T10:43:54.430Z,100942.58
2018-11-29T10:46:22.510Z,100946.37
2018-11-29T10:48:50.719Z,100941.38
2018-11-29T10:51:18.802Z,100932.92
2018-11-29T10:53:46.889Z,100932.05
2018-11-29T10:56:14.986Z,100938.11
2018-11-29T10:58:43.059Z,100932.30
2018-11-29T11:01:16.589Z,100932.67
2018-11-29T11:03:44.668Z,100935.66
2018-11-29T11:06:12.750Z,100937.44
2018-11-29T11:08:40.856Z,100943.89
2018-11-29T11:11:08.952Z,100940.78
2018-11-29T11:13:37.820Z,100928.20
2018-11-29T11:16:06.435Z,100930.77
2018-11-29T11:18:34.701Z,100922.27
2018-11-29T11:21:02.817Z,100923.27
2018-11-29T11:23:30.917Z,100929.90
2018-11-29T11:25:59.034Z,100913.44
2018-11-29T11:28:27.137Z,100915.94
2018-11-29T11:30:55.198Z,100914.14
2018-11-29T11:33:23.293Z,100910.34
2018-11-29T11:35:51.373Z,100908.94
2018-11-29T11:38:19.517Z,100904.97
2018-11-29T11:40:47.577Z,100901.16
2018-11-29T11:43:15.661Z,100889.69
2018-11-29T11:45:43.738Z,100889.30
2018-11-29T11:48:11.903Z,100888.86
2018-11-29T11:50:39.991Z,100882.75
2018-11-29T11:53:08.746Z,100879.94
2018-11-29T11:55:37.214Z,100877.05
2018-11-29T11:58:05.689Z,100879.42
2018-11-29T12:00:33.759Z,100866.96
2018-11-29T12:03:04.729Z,100866.64
2018-11-29T12:05:32.786Z,100856.80
2018-11-29T12:08:00.878Z,100855.97
2018-11-29T12:10:28.964Z,100855.34
2018-11-29T12:12:57.044Z,100853.03
2018-11-29T12:15:25.182Z,100842.86
2018-11-29T12:17:53.258Z,100842.20
2018-11-29T12:20:21.371Z,100846.20
2018-11-29T12:22:49.457Z,100842.40
2018-11-29T12:25:19.495Z,100846.31
2018-11-29T12:27:47.644Z,100847.63
2018-11-29T12:30:22.923Z,100844.47
2018-11-29T12:32:51.687Z,100843.98
2018-11-29T12:35:19.794Z,100830.07
2018-11-29T12:37:47.905Z,100818.64
2018-11-29T12:40:16.508Z,100820.78
2018-11-29T12:42:44.577Z,100821.30
2018-11-29T12:45:13.533Z,100818.25
2018-11-29T12:47:41.793Z,100806.48
2018-11-29T12:50:16.373Z,100804.13
2018-11-29T12:52:44.539Z,100798.88
2018-11-29T12:55:13.585Z,100793.73
2018-11-29T12:57:42.276Z,100783.99
2018-11-29T13:00:14.767Z,100775.37
2018-11-29T13:02:49.731Z,100780.53
2018-11-29T13:05:17.809Z,100782.64
2018-11-29T13:07:46.305Z,100773.66
2018-11-29T13:10:16.263Z,100770.55
2018-11-29T13:12:44.378Z,100771.20
2018-11-29T13:15:16.849Z,100766.88
2018-11-29T13:17:44.892Z,100753.94
2018-11-29T13:20:14.110Z,100737.12
2018-11-29T13:22:42.179Z,100722.52
2018-11-29T13:25:13.622Z,100714.72
2018-11-29T13:27:41.744Z,100714.85
2018-11-29T13:30:13.979Z,100711.03
2018-11-29T13:32:42.204Z,100717.45
2018-11-29T13:35:17.963Z,100726.73
2018-11-29T13:37:55.146Z,100740.96
2018-11-29T13:40:23.287Z,100746.15
2018-11-29T13:42:51.353Z,100738.73
2018-11-29T13:45:19.441Z,100738.42
2018-11-29T13:47:47.518Z,100744.84
2018-11-29T13:50:16.336Z,100736.73
2018-11-29T13:52:44.468Z,100735.44
2018-11-29T13:55:14.233Z,100749.09
2018-11-29T13:57:43.481Z,100748.25
2018-11-29T14:00:13.793Z,100740.77
2018-11-29T14:02:41.884Z,100769.29
2018-11-29T14:05:10.565Z,100773.08
2018-11-29T14:07:38.762Z,100752.20
2018-11-29T14:10:12.691Z,100763.28
2018-11-29T14:12:40.762Z,100734.28
2018-11-29T14:15:16.551Z,100744.05
2018-11-29T14:17:44.627Z,100730.46
2018-11-29T14:20:13.321Z,100702.40
2018-11-29T14:22:41.423Z,100683.61
2018-11-29T14:25:10.594Z,100639.59
2018-11-29T14:27:38.715Z,100605.18
2018-11-29T14:30:11.437Z,100564.97
2018-11-29T14:32:39.563Z,100572.97
2018-11-29T14:35:08.007Z,100626.30
2018-11-29T14:37:36.137Z,100621.80
2018-11-29T14:40:06.835Z,100672.25
2018-11-29T14:42:34.928Z,100677.98
2018-11-29T14:45:03.010Z,100638.55
2018-11-29T14:47:31.135Z,100674.38
2018-11-29T14:49:59.285Z,100654.97
2018-11-29T14:52:27.359Z,100666.77
2018-11-29T14:54:55.417Z,100673.88
2018-11-29T14:57:23.507Z,100650.83
2018-11-29T14:59:51.583Z,100651.85
2018-11-29T15:02:19.661Z,100711.71
2018-11-29T15:04:47.752Z,100711.18
2018-11-29T15:07:15.868Z,100717.39
2018-11-29T15:09:43.950Z,100713.28
2018-11-29T15:12:13.038Z,100724.45
2018-11-29T15:14:41.270Z,100720.45
2018-11-29T15:17:09.349Z,100739.98
2018-11-29T15:19:37.423Z,100713.91
2018-11-29T15:22:05.774Z,100714.94
2018-11-29T15:24:33.852Z,100683.74
2018-11-29T15:27:01.940Z,100640.39
2018-11-29T15:29:30.026Z,100656.66
2018-11-29T15:31:58.132Z,100634.88
2018-11-29T15:34:26.204Z,100628.44
2018-11-29T15:36:54.293Z,100629.92
2018-11-29T15:39:22.370Z,100613.50
2018-11-29T15:41:50.458Z,100596.05
2018-11-29T15:44:18.561Z,100582.94
2018-11-29T15:46:46.631Z,100580.59
2018-11-29T15:49:14.717Z,100600.33
2018-11-29T15:51:42.798Z,100603.34
2018-11-29T15:54:10.877Z,100592.91
2018-11-29T15:56:38.973Z,100608.67
2018-11-29T15:59:07.035Z,100605.84
2018-11-29T16:01:35.126Z,100600.03
2018-11-29T16:04:03.213Z,100602.50
2018-11-29T16:06:31.317Z,100598.88
2018-11-29T16:08:59.414Z,100591.58
2018-11-29T16:11:27.506Z,100596.05
2018-11-29T16:13:55.609Z,100596.05
2018-11-29T16:16:23.679Z,100590.56
2018-11-29T16:18:51.812Z,100592.55
2018-11-29T16:21:19.860Z,100575.10
2018-11-29T16:23:48.123Z,100575.28
2018-11-29T16:26:16.203Z,100584.22
2018-11-29T16:28:44.282Z,100575.63
2018-11-29T16:31:12.345Z,100568.81
2018-11-29T16:33:40.477Z,100563.98
2018-11-29T16:36:09.042Z,100565.31
2018-11-29T16:38:37.136Z,100554.19
2018-11-29T16:41:05.286Z,100557.34
2018-11-29T16:43:33.381Z,100548.03
2018-11-29T16:46:01.479Z,100564.65
2018-11-29T16:48:29.569Z,100573.46
2018-11-29T16:50:57.630Z,100570.14
2018-11-29T16:53:25.719Z,100559.69
2018-11-29T16:55:53.781Z,100563.81
2018-11-29T16:58:23.631Z,100565.31
2018-11-29T17:00:51.704Z,100560.00
2018-11-29T17:03:19.773Z,100557.17
2018-11-29T17:05:47.856Z,100563.32
2018-11-29T17:08:15.954Z,100571.64
2018-11-29T17:10:44.021Z,100563.81
2018-11-29T17:13:14.598Z,100562.16
2018-11-29T17:15:42.679Z,100565.80
2018-11-29T17:18:10.789Z,100574.97
2018-11-29T17:20:38.902Z,100568.81
2018-11-29T17:23:08.423Z,100565.49
2018-11-29T17:25:36.498Z,100564.16
2018-11-29T17:28:04.602Z,100563.50
2018-11-29T17:30:32.699Z,100562.34
2018-11-29T17:33:00.781Z,100558.17
2018-11-29T17:35:28.862Z,100560.48
2018-11-29T17:37:59.824Z,100570.94
2018-11-29T17:40:27.910Z,100568.45
2018-11-29T17:42:56.837Z,100566.64
2018-11-29T17:45:27.042Z,100567.66
2018-11-29T17:48:00.437Z,100561.50
2018-11-29T17:50:30.077Z,100558.50
2018-11-29T17:52:58.153Z,100544.90
2018-11-29T17:55:26.241Z,100553.05
2018-11-29T17:57:54.438Z,100551.02
2018-11-29T18:00:25.546Z,100546.16
2018-11-29T18:02:53.617Z,100556.44
2018-11-29T18:05:21.708Z,100564.56
2018-11-29T18:07:50.029Z,100564.22
2018-11-29T18:10:26.074Z,100560.28
2018-11-29T18:13:04.476Z,100557.78
2018-11-29T18:15:37.522Z,100568.66
2018-11-29T18:18:07.795Z,100573.84
2018-11-29T18:20:36.438Z,100576.94
2018-11-29T18:23:04.835Z,100573.05
2018-11-29T18:25:34.541Z,100562.11
2018-11-29T18:28:06.828Z,100561.98
2018-11-29T18:30:39.309Z,100568.45
2018-11-29T18:33:09.233Z,100581.56
2018-11-29T18:35:38.014Z,100575.09
2018-11-29T18:38:11.716Z,100572.95
2018-11-29T18:40:43.592Z,100583.81
2018-11-29T18:43:12.937Z,100577.02
2018-11-29T18:45:42.328Z,100570.97
2018-11-29T18:48:16.078Z,100573.30
2018-11-29T18:50:47.001Z,100565.96
2018-11-29T18:53:15.522Z,100570.39
2018-11-29T18:55:45.079Z,100571.84
2018-11-29T18:58:20.468Z,100568.09
2018-11-29T19:00:50.711Z,100567.30
2018-11-29T19:03:21.617Z,100563.50
2018-11-29T19:05:53.179Z,100565.22
2018-11-29T19:08:23.680Z,100563.58
2018-11-29T19:10:58.943Z,100565.11
2018-11-29T19:13:31.652Z,100560.66
2018-11-29T19:16:01.098Z,100555.27
2018-11-29T19:18:29.977Z,100554.91
2018-11-29T19:20:59.700Z,100559.25
2018-11-29T19:23:28.919Z,100561.13
2018-11-29T19:28:37.122Z,100574.19
2018-11-29T19:31:05.816Z,100572.19
2018-11-29T19:33:37.770Z,100579.95
2018-11-29T19:36:09.837Z,100574.12
2018-11-29T19:38:42.031Z,100572.61
2018-11-29T19:41:10.561Z,100583.16
2018-11-29T19:43:39.167Z,100587.56
2018-11-29T19:46:09.287Z,100589.75
2018-11-29T19:48:38.671Z,100592.12
2018-11-29T19:51:08.486Z,100595.39
2018-11-29T19:53:38.217Z,100585.83
2018-11-29T19:56:08.382Z,100581.61
2018-11-29T19:58:38.272Z,100574.16
2018-11-29T20:01:07.493Z,100573.73
2018-11-29T20:03:41.666Z,100577.38
2018-11-29T20:06:10.719Z,100573.13
2018-11-29T20:08:44.746Z,100565.78
2018-11-29T20:11:13.103Z,100572.12
2018-11-29T20:13:44.329Z,100571.64
2018-11-29T20:16:13.999Z,100566.26
2018-11-29T20:18:43.995Z,100572.82
2018-11-29T20:21:14.146Z,100572.05
2018-11-29T20:23:46.135Z,100573.86
2018-11-29T20:26:16.847Z,100594.15
2018-11-29T20:28:45.849Z,100572.69
2018-11-29T20:31:16.185Z,100579.34
2018-11-29T20:33:47.787Z,100573.42
2018-11-29T20:36:23.965Z,100573.80
2018-11-29T20:38:53.963Z,100577.59
2018-11-29T20:41:23.160Z,100578.86
2018-11-29T20:43:53.387Z,100572.89
2018-11-29T20:46:25.558Z,100573.31
2018-11-29T20:48:55.580Z,100584.16
2018-11-29T20:51:24.099Z,100584.06
2018-11-29T20:53:52.438Z,100582.72
2018-11-29T20:56:20.851Z,100584.03
2018-11-29T20:58:51.895Z,100583.63
2018-11-29T21:01:21.607Z,100580.83
2018-11-29T21:03:50.257Z,100573.03
2018-11-29T21:06:23.122Z,100591.75
2018-11-29T21:08:52.924Z,100579.77
2018-11-29T21:11:27.670Z,100584.67
2018-11-29T21:14:01.310Z,100582.81
2018-11-29T21:16:34.099Z,100577.73
2018-11-29T21:19:03.612Z,100587.73
2018-11-29T21:21:35.794Z,100581.50
2018-11-29T21:24:09.131Z,100576.97
2018-11-29T21:26:40.169Z,100568.65
2018-11-29T21:29:09.991Z,100571.69
2018-11-29T21:31:42.042Z,100571.63
2018-11-29T21:34:12.822Z,100563.35
2018-11-29T21:36:49.245Z,100559.25
2018-11-29T21:39:22.516Z,100555.63
2018-11-29T21:41:55.379Z,100554.41
2018-11-29T21:44:25.207Z,100557.19
2018-11-29T21:46:56.751Z,100550.95
2018-11-29T21:52:07.401Z,100546.20
2018-11-29T21:54:36.101Z,100542.34
2018-11-29T21:57:04.722Z,100541.14
2018-11-29T21:59:35.575Z,100538.36
2018-11-29T22:02:05.675Z,100533.17
2018-11-29T22:04:38.536Z,100526.06
2018-11-29T22:07:07.396Z,100527.75
2018-11-29T22:09:35.877Z,100527.33
2018-11-29T22:12:10.574Z,100529.63
2018-11-29T22:14:40.493Z,100540.88
2018-11-29T22:17:20.403Z,100548.50
2018-11-29T22:19:52.186Z,100542.73
2018-11-29T22:22:21.626Z,100534.41
2018-11-29T22:24:51.392Z,100540.47
2018-11-29T22:27:22.174Z,100529.33
2018-11-29T22:29:51.247Z,100532.87
2018-11-29T22:32:21.612Z,100527.80
2018-11-29T22:34:52.977Z,100518.56
2018-11-29T22:37:26.240Z,100515.89
2018-11-29T22:39:56.487Z,100515.69
2018-11-29T22:42:50.775Z,100516.20
2018-11-29T22:45:20.565Z,100505.78
2018-11-29T22:47:49.890Z,100511.09
2018-11-29T22:50:22.911Z,100509.14
2018-11-29T23:22:24.492Z,100532.70
2018-11-29T23:25:14.018Z,100530.95
2018-11-29T23:27:44.643Z,100534.46
2018-11-29T23:30:17.764Z,100531.19
2018-11-29T23:32:49.207Z,100531.13
2018-11-29T23:35:19.923Z,100540.11
2018-11-29T23:37:51.137Z,100538.80
2018-11-29T23:40:20.838Z,100535.66
2018-11-29T23:42:51.240Z,100539.34
2018-11-29T23:45:20.165Z,100533.91
2018-11-29T23:47:49.723Z,100535.80
2018-11-29T23:50:18.701Z,100532.37
2018-11-29T23:52:49.795Z,100532.13
2018-11-29T23:55:21.941Z,100525.07
2018-11-29T23:57:53.429Z,100529.86
